Aérodrome :
LOGIN :

S'inscrire | Disclaimer

   EN    FR    IT 

 










Légende :    VFR   VFR Marginal   IFR   IFR Intensif   IFR Très Intensif
Visi : 
Plafond : 
>= 8 km
>= 3000ft
5 à 8 km
1000 à 3000 ft
1500m à 5 km
500 à 1000 ft
800 à 1500m
200 à 500 ft
< 800m
< 200 ft
Symboles :   Orages  Brouillard  Fortes neiges  Fortes précipitations  Vent > 20 kt
SIGMETs :   Divers  Orages  Givrage  Turbulence  Onde Orograph.  Cendres Volcan.






- Altitude de l'aérodrome : 6 ft
- Code IATA : CFU


LGKR - Corfu Kerkyra

DERNIER METAR :
  • 201120Z 33013KT 9999 FEW020 SCT040 15/09 Q1013 NOSIG

METARs EXPIRÉS :
  • 201050Z 33013KT 9999 FEW020 SCT040 14/09 Q1013 NOSIG
  • 201020Z 35011KT 9999 SCT020 SCT080 14/09 Q1013 NOSIG
  • 200950Z 31011KT 9999 SCT020 SCT080 13/09 Q1013 NOSIG
  • 200920Z 32005KT 9999 SCT020 SCT080 12/08 Q1013 NOSIG
  • 200850Z 26003KT 9999 SCT020 SCT080 12/08 Q1013 NOSIG

TAF TAF LGKR
Valide du 20 à 06h jusqu'au 21 à 06h UTC


200500Z 2006/2106 33015KT 9999 SCT015 SCT030 BKN080
PROB40
TEMPO 2006/2015 5000 RA FEW015TCU BKN020 BKN070
PROB40
TEMPO 2006/2012 4000 TSRA SCT010 FEW016CB BKN020 BKN070
BECMG 2012/2014 34015G28KT
BECMG 2019/2021 32010KT



MET'MAP, la Météo Aéronautique d'un coup d'oeil ! - Copyright ORBIFLY Décembre 2007 - Disclaimer

ORBIFLY MET'MAP TEAM :

Programmation & Développement : Alexandra Zaïnal
Sur une idée originale de : Baudouin d'Aumeries
Assistance à la programmation : Marc-Olivier Méhu
Soutien technique & logistique : Manuel Goepfert

Contact : metmap@orbifly.com




SOURCES & CREDITS :

   NOAA